KBNL/BNL METAR and TAF weather

Enter ICAO airport designator
Station Type Date Time Source
KBNL METAR 2018/07/19 07:35 UTC NOAA

KBNL 190735Z AUTO 00000KT 10SM FEW016 SCT039 BKN044 24/23 A2993 RMK AO2


Station Type Date Time Source
KBNL Decoded METAR 2018/07/19 07:35 UTC NOAA

Station name not available
Jul 19, 2018 - 03:35 AM EDT / 2018.07.19 0735 UTC
Wind: Calm:0
Visibility: 10 mile(s):0
Sky conditions: mostly cloudy
Temperature: 75 F (24 C)
Dew Point: 73 F (23 C)
Relative Humidity: 94%
Pressure (altimeter): 29.93 in. Hg (1013 hPa)
ob: KBNL 190735Z AUTO 00000KT 10SM FEW016 SCT039 BKN044 24/23 A2993 RMK AO2
cycle: 7

Station Type Date Time Source
KBNL TAF UTC NOAA

Error!


Example: see airport list